createdAt,value
2023-03-06T00:05:23.406Z,16.7
2023-03-06T00:11:28.698Z,16.7
2023-03-06T00:17:34.571Z,16.7
2023-03-06T00:23:40.176Z,16.7
2023-03-06T00:29:45.895Z,16.7
2023-03-06T00:35:51.803Z,16.6
2023-03-06T00:41:57.856Z,16.6
2023-03-06T00:48:04.044Z,16.6
2023-03-06T00:54:10.216Z,16.5
2023-03-06T01:00:16.209Z,16.5
2023-03-06T01:06:22.044Z,16.5
2023-03-06T01:12:27.759Z,16.5
2023-03-06T01:18:33.761Z,16.4
2023-03-06T01:24:39.721Z,16.4
2023-03-06T01:30:45.517Z,16.4
2023-03-06T01:36:51.135Z,16.4
2023-03-06T01:42:57.064Z,16.3
2023-03-06T01:49:03.024Z,16.3
2023-03-06T01:55:09.079Z,16.3
2023-03-06T02:01:17.077Z,16.3
2023-03-06T02:07:23.105Z,16.3
2023-03-06T02:13:28.604Z,16.2
2023-03-06T02:19:34.179Z,16.3
2023-03-06T02:25:39.933Z,16.3
2023-03-06T02:31:45.940Z,16.3
2023-03-06T02:37:51.758Z,16.3
2023-03-06T02:43:57.489Z,16.3
2023-03-06T02:50:02.721Z,16.4
2023-03-06T02:56:08.449Z,16.4
2023-03-06T03:02:14.216Z,16.4
2023-03-06T03:08:19.979Z,16.4
2023-03-06T03:14:25.802Z,16.4
2023-03-06T03:20:31.739Z,16.4
2023-03-06T03:26:37.609Z,16.4
2023-03-06T03:32:43.716Z,16.4
2023-03-06T03:38:49.546Z,16.4
2023-03-06T03:44:55.446Z,16.4
2023-03-06T03:51:00.828Z,16.4
2023-03-06T03:57:07.032Z,16.4
2023-03-06T04:03:12.811Z,16.4
2023-03-06T04:09:18.560Z,16.4
2023-03-06T04:15:24.565Z,16.4
2023-03-06T04:21:30.778Z,16.4
2023-03-06T04:27:36.175Z,16.4
2023-03-06T04:33:42.288Z,16.4
2023-03-06T04:39:47.566Z,16.3
2023-03-06T04:45:53.482Z,16.3
2023-03-06T04:51:58.976Z,16.4
2023-03-06T04:58:05.411Z,16.5
2023-03-06T05:04:11.182Z,16.5
2023-03-06T05:10:16.752Z,16.7
2023-03-06T05:16:22.570Z,16.8
2023-03-06T05:22:28.096Z,16.9
2023-03-06T05:28:34.048Z,17
2023-03-06T05:34:39.860Z,16.9
2023-03-06T05:40:46.021Z,16.9
2023-03-06T05:46:51.616Z,16.9
2023-03-06T05:52:57.240Z,16.9
2023-03-06T05:59:03.171Z,16.9
2023-03-06T06:05:09.849Z,16.9
2023-03-06T06:11:17.162Z,16.9
2023-03-06T06:17:22.948Z,16.8
2023-03-06T06:23:28.799Z,16.8
2023-03-06T06:29:34.293Z,16.8
2023-03-06T06:35:40.133Z,16.8
2023-03-06T06:41:59.718Z,16.8
2023-03-06T06:48:32.241Z,16.8
2023-03-06T06:54:38.157Z,16.8
2023-03-06T07:00:43.717Z,16.8
2023-03-06T07:06:49.806Z,16.8
2023-03-06T07:12:55.486Z,16.8
2023-03-06T07:19:01.730Z,16.8
2023-03-06T07:25:07.665Z,16.8
2023-03-06T07:31:13.293Z,16.8
2023-03-06T07:37:18.873Z,16.8
2023-03-06T07:43:25.422Z,16.7
2023-03-06T07:49:31.169Z,16.8
2023-03-06T07:55:37.565Z,16.8
2023-03-06T08:01:43.548Z,16.8
2023-03-06T08:07:48.908Z,16.8
2023-03-06T08:13:54.694Z,16.8
2023-03-06T08:20:00.660Z,16.8
2023-03-06T08:26:06.654Z,16.9
2023-03-06T08:32:12.880Z,16.9
2023-03-06T08:38:19.028Z,16.9
2023-03-06T08:44:25.003Z,16.9
2023-03-06T08:50:30.277Z,16.9
2023-03-06T08:56:36.336Z,16.9
2023-03-06T09:02:42.378Z,16.9
2023-03-06T09:08:48.315Z,16.9
2023-03-06T09:14:54.302Z,16.9
2023-03-06T09:21:00.491Z,16.9
2023-03-06T09:27:06.664Z,16.9
2023-03-06T09:33:12.655Z,16.9
2023-03-06T09:39:18.425Z,16.9
2023-03-06T09:45:24.208Z,16.9
2023-03-06T09:51:30.004Z,16.9
2023-03-06T09:57:36.176Z,16.9
2023-03-06T10:03:42.013Z,16.9
2023-03-06T10:09:48.337Z,16.9
2023-03-06T10:15:54.246Z,16.9
2023-03-06T10:22:00.324Z,16.9
2023-03-06T10:28:06.287Z,16.9
2023-03-06T10:34:12.459Z,16.9
2023-03-06T10:40:18.257Z,16.9
2023-03-06T10:46:24.480Z,16.9
2023-03-06T10:52:30.621Z,16.9
2023-03-06T10:58:35.681Z,16.9
2023-03-06T11:04:41.482Z,16.9
2023-03-06T11:10:47.549Z,16.9
2023-03-06T11:16:53.355Z,16.9
2023-03-06T11:22:59.582Z,16.9
2023-03-06T11:29:04.937Z,16.9
2023-03-06T11:35:10.841Z,16.8
2023-03-06T11:41:16.807Z,16.8
2023-03-06T11:47:22.200Z,16.7
2023-03-06T11:53:28.191Z,16.7
2023-03-06T11:59:34.571Z,16.7
2023-03-06T12:05:40.627Z,16.7
2023-03-06T12:11:45.716Z,16.7
2023-03-06T12:17:51.693Z,16.7
2023-03-06T12:23:57.456Z,16.7
2023-03-06T12:30:03.045Z,16.7
2023-03-06T12:36:08.818Z,16.7
2023-03-06T12:42:22.836Z,16.7
2023-03-06T12:48:29.811Z,16.7
2023-03-06T12:54:35.849Z,16.8
2023-03-06T13:00:41.645Z,16.7
2023-03-06T13:06:51.005Z,16.7
2023-03-06T13:12:56.884Z,16.7
2023-03-06T13:19:02.772Z,16.6
2023-03-06T13:25:08.607Z,16.6
2023-03-06T13:31:26.311Z,16.6
2023-03-06T13:37:32.598Z,16.6
2023-03-06T13:43:38.375Z,16.6
2023-03-06T13:49:48.874Z,16.6
2023-03-06T13:55:54.635Z,16.6
2023-03-06T14:02:00.639Z,16.6
2023-03-06T14:08:06.600Z,16.6
2023-03-06T14:14:12.440Z,16.6
2023-03-06T14:20:18.251Z,16.6
2023-03-06T14:26:23.962Z,16.7
2023-03-06T14:32:29.924Z,16.6
2023-03-06T14:38:35.802Z,16.7
2023-03-06T14:44:41.653Z,16.6
2023-03-06T14:50:47.868Z,16.7
2023-03-06T14:56:53.616Z,16.6
2023-03-06T15:02:59.021Z,16.6
2023-03-06T15:09:06.519Z,16.6
2023-03-06T15:15:12.813Z,16.6
2023-03-06T15:21:18.369Z,16.7
2023-03-06T15:27:24.208Z,16.9
2023-03-06T15:33:30.339Z,17
2023-03-06T15:39:36.321Z,17.1
2023-03-06T15:45:42.723Z,17.2
2023-03-06T15:51:48.729Z,17.2
2023-03-06T15:57:54.411Z,17.2
2023-03-06T16:03:59.861Z,17.2
2023-03-06T16:10:05.636Z,17.1
2023-03-06T16:16:11.842Z,17.1
2023-03-06T16:22:17.799Z,17.1
2023-03-06T16:28:23.569Z,17.1
2023-03-06T16:34:29.405Z,17
2023-03-06T16:40:35.299Z,17
2023-03-06T16:46:41.091Z,17
2023-03-06T16:52:47.483Z,17
2023-03-06T16:58:53.260Z,16.9
2023-03-06T17:04:59.055Z,16.9
2023-03-06T17:11:05.011Z,16.9
2023-03-06T17:17:11.206Z,16.9
2023-03-06T17:23:17.454Z,16.9
2023-03-06T17:29:22.973Z,16.9
2023-03-06T17:35:28.363Z,16.9
2023-03-06T17:41:33.810Z,16.9
2023-03-06T17:47:39.900Z,16.9
2023-03-06T17:53:45.959Z,16.9
2023-03-06T17:59:51.640Z,16.9
2023-03-06T18:05:57.714Z,16.9
2023-03-06T18:12:03.193Z,16.9
2023-03-06T18:18:09.165Z,16.9
2023-03-06T18:24:15.171Z,17
2023-03-06T18:30:20.932Z,16.9
2023-03-06T18:36:26.599Z,16.9
2023-03-06T18:42:32.707Z,16.9
2023-03-06T18:48:38.319Z,16.9
2023-03-06T18:54:44.460Z,16.9
2023-03-06T19:00:50.134Z,17
2023-03-06T19:06:55.811Z,17
2023-03-06T19:13:01.604Z,17
2023-03-06T19:19:07.767Z,17
2023-03-06T19:25:13.409Z,17
2023-03-06T19:31:19.702Z,17
2023-03-06T19:37:25.932Z,17
2023-03-06T19:43:31.495Z,17
2023-03-06T19:49:37.327Z,17
2023-03-06T19:55:43.676Z,17
2023-03-06T20:01:49.869Z,17
2023-03-06T20:07:56.058Z,16.9
2023-03-06T20:14:01.834Z,16.9
2023-03-06T20:20:07.766Z,16.9
2023-03-06T20:26:13.473Z,16.9
2023-03-06T20:32:19.374Z,16.9
2023-03-06T20:38:25.334Z,16.9
2023-03-06T20:44:31.299Z,16.8
2023-03-06T20:50:37.482Z,16.9
2023-03-06T20:56:43.280Z,16.9
2023-03-06T21:02:49.254Z,16.9
2023-03-06T21:08:55.013Z,16.9
2023-03-06T21:15:00.486Z,16.9
2023-03-06T21:21:06.206Z,16.9
2023-03-06T21:27:12.176Z,16.9
2023-03-06T21:33:18.202Z,16.9
2023-03-06T21:39:24.333Z,16.9
2023-03-06T21:45:30.924Z,16.9
2023-03-06T21:51:36.497Z,16.9
2023-03-06T21:57:42.704Z,16.9
2023-03-06T22:03:48.575Z,16.8
2023-03-06T22:09:54.666Z,16.8
2023-03-06T22:16:00.220Z,16.8
2023-03-06T22:22:06.255Z,16.8
2023-03-06T22:28:13.288Z,16.8
2023-03-06T22:34:19.005Z,16.8
2023-03-06T22:40:24.764Z,16.8
2023-03-06T22:46:30.258Z,16.8
2023-03-06T22:52:36.361Z,16.8
2023-03-06T22:58:42.682Z,16.8
2023-03-06T23:11:11.558Z,16.7
2023-03-06T23:17:24.410Z,16.7
2023-03-06T23:42:27.083Z,16.7
2023-03-06T23:48:32.605Z,16.6
2023-03-06T23:54:39.399Z,16.6
